createdAt,value
2022-11-28T00:00:54.776Z,101251.19
2022-11-28T00:03:57.838Z,101237.09
2022-11-28T00:07:00.699Z,101228.53
2022-11-28T00:10:05.129Z,101233.25
2022-11-28T00:13:08.033Z,101229.03
2022-11-28T00:16:16.119Z,101222.09
2022-11-28T00:19:19.806Z,101231.41
2022-11-28T00:22:22.691Z,101224.13
2022-11-28T00:25:25.367Z,101235.19
2022-11-28T00:28:28.543Z,101231.81
2022-11-28T00:31:33.897Z,101224.91
2022-11-28T00:34:36.979Z,101226.25
2022-11-28T00:37:39.595Z,101231.50
2022-11-28T00:40:42.443Z,101230.75
2022-11-28T00:43:46.688Z,101242.34
2022-11-28T00:46:50.517Z,101237.28
2022-11-28T00:49:53.173Z,101239.53
2022-11-28T00:52:56.081Z,101238.53
2022-11-28T00:55:58.716Z,101241.72
2022-11-28T00:59:01.699Z,101235.53
2022-11-28T01:02:04.689Z,101234.72
2022-11-28T01:05:07.960Z,101236.22
2022-11-28T01:08:11.050Z,101232.53
2022-11-28T01:11:14.290Z,101231.22
2022-11-28T01:14:19.258Z,101226.25
2022-11-28T01:17:22.176Z,101227.56
2022-11-28T01:20:25.955Z,101228.97
2022-11-28T01:23:28.947Z,101223.22
2022-11-28T01:26:31.685Z,101223.87
2022-11-28T01:29:34.563Z,101209.31
2022-11-28T01:32:38.409Z,101211.16
2022-11-28T01:35:41.257Z,101201.75
2022-11-28T01:38:46.840Z,101201.59
2022-11-28T01:41:50.815Z,101188.41
2022-11-28T01:44:53.355Z,101188.81
2022-11-28T01:48:01.975Z,101193.03
2022-11-28T01:51:19.613Z,101189.66
2022-11-28T01:54:25.721Z,101168.81
2022-11-28T01:57:29.226Z,101164.00
2022-11-28T02:00:32.525Z,101163.47
2022-11-28T02:03:44.378Z,101145.44
2022-11-28T02:06:48.308Z,101147.19
2022-11-28T02:09:50.913Z,101152.69
2022-11-28T02:13:15.919Z,101143.94
2022-11-28T02:16:53.318Z,101136.88
2022-11-28T02:20:12.677Z,101138.37
2022-11-28T02:23:42.252Z,101130.19
2022-11-28T02:27:16.198Z,101133.19
2022-11-28T02:30:23.183Z,101129.94
2022-11-28T02:34:01.147Z,101128.50
2022-11-28T02:37:09.857Z,101126.13
2022-11-28T02:40:24.810Z,101115.28
2022-11-28T02:43:49.590Z,101120.53
2022-11-28T02:47:06.001Z,101108.47
2022-11-28T02:50:30.581Z,101099.22
2022-11-28T02:53:35.422Z,101098.25
2022-11-28T02:56:38.510Z,101098.84
2022-11-28T02:59:41.410Z,101104.91
2022-11-28T03:02:45.632Z,101096.50
2022-11-28T03:06:04.043Z,101096.19
2022-11-28T03:09:15.236Z,101094.37
2022-11-28T03:12:41.046Z,101080.19
2022-11-28T03:15:55.818Z,101082.91
2022-11-28T03:19:28.049Z,101072.34
2022-11-28T03:23:01.715Z,101068.72
2022-11-28T03:26:10.248Z,101066.94
2022-11-28T03:29:20.948Z,101065.50
2022-11-28T03:32:28.796Z,101068.72
2022-11-28T03:35:36.667Z,101062.84
2022-11-28T03:38:45.552Z,101056.47
2022-11-28T03:42:05.322Z,101053.59
2022-11-28T03:45:18.984Z,101052.84
2022-11-28T03:48:35.022Z,101054.81
2022-11-28T03:51:40.169Z,101043.66
2022-11-28T03:55:04.630Z,101050.78
2022-11-28T03:58:20.856Z,101032.66
2022-11-28T04:01:55.560Z,101020.69
2022-11-28T04:05:25.716Z,101028.53
2022-11-28T04:08:40.093Z,101017.44
2022-11-28T04:11:54.197Z,101017.75
2022-11-28T04:15:03.915Z,101013.91
2022-11-28T04:18:18.673Z,101016.09
2022-11-28T04:21:35.964Z,101021.78
2022-11-28T04:24:45.636Z,101030.50
2022-11-28T04:27:54.353Z,101026.75
2022-11-28T04:31:00.848Z,101024.84
2022-11-28T04:34:11.542Z,101033.25
2022-11-28T04:37:16.180Z,101038.00
2022-11-28T04:40:20.771Z,101039.16
2022-11-28T04:43:49.243Z,101039.28
2022-11-28T04:46:54.732Z,101042.47
2022-11-28T04:49:58.465Z,101044.78
2022-11-28T04:53:08.154Z,101049.41
2022-11-28T04:56:21.328Z,101051.28
2022-11-28T04:59:26.934Z,101050.81
2022-11-28T05:02:30.604Z,101062.69
2022-11-28T05:05:43.938Z,101061.38
2022-11-28T05:08:46.868Z,101059.81
2022-11-28T05:11:49.436Z,101057.19
2022-11-28T05:14:52.415Z,101065.97
2022-11-28T05:17:55.090Z,101071.00
2022-11-28T05:21:01.722Z,101062.25
2022-11-28T05:24:04.493Z,101051.53
2022-11-28T05:27:08.432Z,101050.53
2022-11-28T05:30:11.744Z,101047.91
2022-11-28T05:33:14.738Z,101047.91
2022-11-28T05:36:18.508Z,101043.72
2022-11-28T05:39:21.892Z,101050.87
2022-11-28T05:42:26.044Z,101049.25
2022-11-28T05:45:28.965Z,101047.22
2022-11-28T05:48:31.584Z,101047.37
2022-11-28T05:51:34.913Z,101041.25
2022-11-28T05:54:37.871Z,101044.06
2022-11-28T05:57:40.784Z,101048.00
2022-11-28T06:00:43.356Z,101044.69
2022-11-28T06:03:46.734Z,101040.16
2022-11-28T06:06:51.063Z,101048.00
2022-11-28T06:09:54.818Z,101046.22
2022-11-28T06:12:57.472Z,101052.53
2022-11-28T06:16:00.676Z,101047.03
2022-11-28T06:19:06.780Z,101046.53
2022-11-28T06:22:10.230Z,101044.91
2022-11-28T06:25:13.148Z,101047.13
2022-11-28T06:28:16.072Z,101046.53
2022-11-28T06:31:21.877Z,101048.16
2022-11-28T06:34:25.053Z,101051.84
2022-11-28T06:37:28.595Z,101051.03
2022-11-28T06:40:31.512Z,101053.16
2022-11-28T06:43:34.591Z,101056.03
2022-11-28T06:46:38.256Z,101048.09
2022-11-28T06:49:41.458Z,101051.25
2022-11-28T06:52:44.906Z,101056.34
2022-11-28T06:55:47.475Z,101055.72
2022-11-28T06:58:56.713Z,101062.41
2022-11-28T07:02:07.164Z,101061.69
2022-11-28T07:05:10.541Z,101067.66
2022-11-28T07:08:13.283Z,101069.16
2022-11-28T07:11:31.906Z,101065.88
2022-11-28T07:14:34.926Z,101055.84
2022-11-28T07:17:38.089Z,101053.50
2022-11-28T07:20:44.655Z,101055.59
2022-11-28T07:23:48.169Z,101050.28
2022-11-28T07:26:50.875Z,101043.53
2022-11-28T07:29:53.756Z,101047.72
2022-11-28T07:32:56.358Z,101044.38
2022-11-28T07:36:04.867Z,101048.84
2022-11-28T07:39:09.024Z,101040.03
2022-11-28T07:42:12.544Z,101042.66
2022-11-28T07:45:15.345Z,101049.88
2022-11-28T07:48:18.336Z,101060.91
2022-11-28T07:51:27.154Z,101047.06
2022-11-28T07:54:30.186Z,101057.91
2022-11-28T07:57:33.308Z,101051.50
2022-11-28T08:00:36.339Z,101046.06
2022-11-28T08:03:39.908Z,101052.41
2022-11-28T08:06:44.454Z,101042.06
2022-11-28T08:09:47.867Z,101042.88
2022-11-28T08:12:51.207Z,101050.91
2022-11-28T08:15:54.689Z,101040.03
2022-11-28T08:19:00.742Z,101045.53
2022-11-28T08:22:06.121Z,101042.34
2022-11-28T08:25:09.427Z,101043.72
2022-11-28T08:28:12.480Z,101045.41
2022-11-28T08:31:21.422Z,101046.53
2022-11-28T08:34:24.515Z,101042.41
2022-11-28T08:37:28.557Z,101044.97
2022-11-28T08:40:31.586Z,101050.16
2022-11-28T08:43:34.954Z,101045.16
2022-11-28T08:46:38.090Z,101051.03
2022-11-28T08:49:41.082Z,101052.28
2022-11-28T08:52:44.059Z,101056.78
2022-11-28T08:55:49.090Z,101058.41
2022-11-28T08:58:51.970Z,101054.53
2022-11-28T09:01:54.943Z,101062.41
2022-11-28T09:04:57.905Z,101057.09
2022-11-28T09:08:00.854Z,101054.97
2022-11-28T09:11:07.017Z,101053.03
2022-11-28T09:14:09.807Z,101050.31
2022-11-28T09:17:12.917Z,101038.13
2022-11-28T09:20:16.916Z,101044.84
2022-11-28T09:23:19.900Z,101044.94
2022-11-28T09:26:25.353Z,101043.44
2022-11-28T09:29:29.501Z,101037.56
2022-11-28T09:32:32.109Z,101030.88
2022-11-28T09:35:38.468Z,101029.81
2022-11-28T09:38:41.301Z,101031.56
2022-11-28T09:42:04.576Z,101030.75
2022-11-28T09:45:17.475Z,101019.59
2022-11-28T09:48:20.406Z,101015.97
2022-11-28T09:51:37.997Z,101003.37
2022-11-28T09:54:48.873Z,101000.09
2022-11-28T09:57:53.152Z,100988.09
2022-11-28T10:01:08.351Z,100987.44
2022-11-28T10:04:30.173Z,100985.84
2022-11-28T10:07:55.390Z,100982.84
2022-11-28T10:11:15.500Z,100976.53
2022-11-28T10:14:37.128Z,100981.41
2022-11-28T10:17:59.224Z,100983.03
2022-11-28T10:21:17.710Z,100985.13
2022-11-28T10:24:29.623Z,100975.53
2022-11-28T10:27:36.094Z,100971.41
2022-11-28T10:30:45.779Z,100971.03
2022-11-28T10:33:52.519Z,100979.41
2022-11-28T10:37:16.128Z,100972.13
2022-11-28T10:40:33.720Z,100969.06
2022-11-28T10:44:03.193Z,100959.69
2022-11-28T10:47:15.401Z,100973.59
2022-11-28T10:50:45.255Z,100963.75
2022-11-28T10:54:27.451Z,100969.78
2022-11-28T10:58:05.424Z,100958.81
2022-11-28T11:01:08.547Z,100969.63
2022-11-28T11:04:23.065Z,100974.09
2022-11-28T11:07:33.649Z,100961.81
2022-11-28T11:10:50.332Z,100965.06
2022-11-28T11:14:01.337Z,100963.94
2022-11-28T11:17:04.471Z,100957.06
2022-11-28T11:20:27.633Z,100940.19
2022-11-28T11:23:36.734Z,100954.44
2022-11-28T11:26:43.806Z,100942.34
2022-11-28T11:29:51.245Z,100941.78
2022-11-28T11:32:56.487Z,100941.28
2022-11-28T11:36:02.517Z,100931.56
2022-11-28T11:39:25.876Z,100927.22
2022-11-28T11:42:31.189Z,100926.91
2022-11-28T11:45:35.501Z,100934.06
2022-11-28T11:48:52.682Z,100921.81
2022-11-28T11:52:01.467Z,100925.41
2022-11-28T11:55:14.720Z,100915.41
2022-11-28T11:58:23.621Z,100909.97
2022-11-28T12:01:27.918Z,100901.87
2022-11-28T12:04:45.686Z,100896.53
2022-11-28T12:08:01.855Z,100888.28
2022-11-28T12:11:12.258Z,100898.44
2022-11-28T12:14:36.802Z,100896.84
2022-11-28T12:17:51.462Z,100893.31
2022-11-28T12:21:26.580Z,100896.19
2022-11-28T12:24:52.966Z,100886.66
2022-11-28T12:28:27.111Z,100894.41
2022-11-28T12:31:44.114Z,100890.41
2022-11-28T12:35:17.668Z,100881.66
2022-11-28T12:38:47.950Z,100884.56
2022-11-28T12:42:18.016Z,100888.63
2022-11-28T12:45:39.883Z,100880.66
2022-11-28T12:49:08.227Z,100883.25
2022-11-28T12:52:23.088Z,100882.31
2022-11-28T12:55:45.842Z,100883.41
2022-11-28T12:59:00.808Z,100879.88
2022-11-28T13:02:23.644Z,100888.56
2022-11-28T13:05:29.721Z,100884.03
2022-11-28T13:08:46.628Z,100876.94
2022-11-28T13:12:00.814Z,100870.63
2022-11-28T13:15:14.097Z,100870.63
2022-11-28T13:18:41.365Z,100871.53
2022-11-28T13:22:06.819Z,100872.19
2022-11-28T13:25:19.584Z,100874.63
2022-11-28T13:28:52.672Z,100868.78
2022-11-28T13:32:08.166Z,100863.66
2022-11-28T13:35:16.561Z,100864.47
2022-11-28T13:38:38.454Z,100863.50
2022-11-28T13:42:36.182Z,100863.19
2022-11-28T13:49:20.391Z,100862.38
2022-11-28T13:52:26.512Z,100857.66
2022-11-28T13:55:38.363Z,100870.13
2022-11-28T13:58:57.166Z,100868.16
2022-11-28T14:02:18.006Z,100869.28
2022-11-28T14:05:38.450Z,100860.75
2022-11-28T14:08:44.226Z,100852.50
2022-11-28T14:12:15.075Z,100864.63
2022-11-28T14:15:34.046Z,100857.53
2022-11-28T14:18:58.892Z,100854.44
2022-11-28T14:22:19.560Z,100854.91
2022-11-28T14:25:34.768Z,100848.75
2022-11-28T14:28:42.855Z,100850.53
2022-11-28T14:32:13.617Z,100839.06
2022-11-28T14:35:54.767Z,100858.44
2022-11-28T14:39:15.004Z,100856.00
2022-11-28T14:42:44.145Z,100851.47
2022-11-28T14:45:45.415Z,100857.78
2022-11-28T14:49:00.362Z,100870.69
2022-11-28T14:52:38.274Z,100871.69
2022-11-28T14:55:41.924Z,100864.75
2022-11-28T14:58:50.182Z,100853.41
2022-11-28T15:02:02.077Z,100852.59
2022-11-28T15:05:23.572Z,100858.09
2022-11-28T15:08:55.542Z,100857.41
2022-11-28T15:12:12.671Z,100847.72
2022-11-28T15:15:17.672Z,100853.84
2022-11-28T15:18:24.394Z,100846.94
2022-11-28T15:21:28.037Z,100851.28
2022-11-28T15:24:37.549Z,100845.47
2022-11-28T15:27:40.162Z,100843.06
2022-11-28T15:30:49.014Z,100845.53
2022-11-28T15:33:51.638Z,100854.06
2022-11-28T15:36:56.852Z,100845.22
2022-11-28T15:40:06.429Z,100842.25
2022-11-28T15:43:14.475Z,100839.72
2022-11-28T15:46:23.574Z,100834.97
2022-11-28T15:49:32.612Z,100837.41
2022-11-28T15:52:35.299Z,100843.22
2022-11-28T15:55:38.261Z,100845.19
2022-11-28T15:58:43.508Z,100837.56
2022-11-28T16:01:46.929Z,100835.12
2022-11-28T16:05:09.033Z,100835.62
2022-11-28T16:08:30.634Z,100836.59
2022-11-28T16:11:35.303Z,100832.72
2022-11-28T16:14:45.388Z,100832.94
2022-11-28T16:17:49.643Z,100833.91
2022-11-28T16:20:52.675Z,100830.34
2022-11-28T16:23:56.297Z,100825.19
2022-11-28T16:27:02.878Z,100829.69
2022-11-28T16:30:37.163Z,100824.38
2022-11-28T16:33:45.431Z,100831.69
2022-11-28T16:36:49.714Z,100830.72
2022-11-28T16:40:31.502Z,100824.53
2022-11-28T16:43:38.872Z,100825.53
2022-11-28T16:46:58.687Z,100825.50
2022-11-28T16:50:19.782Z,100826.50
2022-11-28T16:53:49.381Z,100833.91
2022-11-28T16:56:57.717Z,100832.63
2022-11-28T17:00:02.215Z,100832.97
2022-11-28T17:03:11.651Z,100833.91
2022-11-28T17:06:27.419Z,100824.06
2022-11-28T17:09:31.033Z,100835.91
2022-11-28T17:12:36.546Z,100833.16
2022-11-28T17:15:42.262Z,100828.28
2022-11-28T17:18:51.254Z,100831.31
2022-11-28T17:21:58.404Z,100839.78
2022-11-28T17:25:03.458Z,100845.88
2022-11-28T17:28:09.904Z,100837.78
2022-11-28T17:31:15.215Z,100848.31
2022-11-28T17:34:27.237Z,100850.22
2022-11-28T17:37:30.709Z,100849.72
2022-11-28T17:40:34.217Z,100839.06
2022-11-28T17:43:40.277Z,100848.56
2022-11-28T17:46:44.232Z,100832.06
2022-11-28T17:49:47.811Z,100846.50
2022-11-28T17:52:54.111Z,100834.84
2022-11-28T17:55:59.818Z,100830.28
2022-11-28T17:59:03.670Z,100842.66
2022-11-28T18:02:06.507Z,100844.88
2022-11-28T18:05:10.888Z,100839.53
2022-11-28T18:08:21.875Z,100837.72
2022-11-28T18:11:27.666Z,100840.78
2022-11-28T18:14:35.202Z,100841.66
2022-11-28T18:17:41.503Z,100838.44
2022-11-28T18:20:44.458Z,100842.41
2022-11-28T18:23:51.131Z,100841.97
2022-11-28T18:26:56.678Z,100842.16
2022-11-28T18:30:07.564Z,100843.44
2022-11-28T18:33:11.554Z,100850.25
2022-11-28T18:36:17.539Z,100843.31
2022-11-28T18:39:32.294Z,100849.47
2022-11-28T18:42:37.415Z,100836.22
2022-11-28T18:45:40.468Z,100837.03
2022-11-28T18:48:46.790Z,100853.16
2022-11-28T18:51:51.527Z,100838.47
2022-11-28T18:54:55.817Z,100856.56
2022-11-28T18:57:59.968Z,100852.19
2022-11-28T19:01:18.476Z,100844.09
2022-11-28T19:04:21.636Z,100858.28
2022-11-28T19:07:27.967Z,100862.00
2022-11-28T19:10:31.188Z,100862.53
2022-11-28T19:13:35.700Z,100862.47
2022-11-28T19:16:39.414Z,100872.13
2022-11-28T19:19:47.106Z,100872.13
2022-11-28T19:22:51.289Z,100867.03
2022-11-28T19:25:54.700Z,100866.28
2022-11-28T19:29:00.027Z,100852.06
2022-11-28T19:32:03.000Z,100860.28
2022-11-28T19:35:07.203Z,100858.66
2022-11-28T19:38:10.781Z,100852.94
2022-11-28T19:41:18.677Z,100855.31
2022-11-28T19:44:24.640Z,100863.31
2022-11-28T19:47:28.649Z,100870.22
2022-11-28T19:50:33.709Z,100868.78
2022-11-28T19:53:38.575Z,100872.38
2022-11-28T19:56:42.142Z,100871.97
2022-11-28T19:59:45.946Z,100873.16
2022-11-28T20:02:50.518Z,100876.63
2022-11-28T20:05:54.011Z,100870.87
2022-11-28T20:09:01.175Z,100868.31
2022-11-28T20:12:05.054Z,100879.47
2022-11-28T20:15:11.518Z,100878.25
2022-11-28T20:18:18.749Z,100872.25
2022-11-28T20:21:22.140Z,100869.75
2022-11-28T20:24:25.330Z,100881.25
2022-11-28T20:27:29.572Z,100870.28
2022-11-28T20:30:34.346Z,100874.44
2022-11-28T20:33:38.447Z,100877.31
2022-11-28T20:36:44.811Z,100869.38
2022-11-28T20:39:48.437Z,100863.09
2022-11-28T20:42:52.183Z,100863.34
2022-11-28T20:45:56.370Z,100862.59
2022-11-28T20:49:02.368Z,100863.19
2022-11-28T20:52:06.230Z,100871.41
2022-11-28T20:55:09.734Z,100871.78
2022-11-28T20:58:13.933Z,100866.53
2022-11-28T21:01:21.374Z,100882.50
2022-11-28T21:04:24.856Z,100875.69
2022-11-28T21:07:28.199Z,100878.19
2022-11-28T21:10:33.808Z,100876.88
2022-11-28T21:13:37.800Z,100870.87
2022-11-28T21:16:40.513Z,100879.75
2022-11-28T21:19:44.150Z,100881.97
2022-11-28T21:22:47.467Z,100882.59
2022-11-28T21:25:50.773Z,100888.09
2022-11-28T21:28:56.572Z,100870.22
2022-11-28T21:31:59.462Z,100869.38
2022-11-28T21:35:04.396Z,100868.59
2022-11-28T21:38:10.882Z,100868.25
2022-11-28T21:41:13.470Z,100886.53
2022-11-28T21:44:18.167Z,100874.25
2022-11-28T21:47:20.786Z,100882.16
2022-11-28T21:50:24.014Z,100883.16
2022-11-28T21:53:28.067Z,100877.37
2022-11-28T21:56:30.983Z,100875.56
2022-11-28T21:59:33.932Z,100880.72
2022-11-28T22:02:37.227Z,100880.41
2022-11-28T22:05:40.360Z,100886.44
2022-11-28T22:08:43.478Z,100872.25
2022-11-28T22:11:47.805Z,100877.75
2022-11-28T22:14:51.272Z,100879.47
2022-11-28T22:17:54.324Z,100878.88
2022-11-28T22:21:17.367Z,100884.34
2022-11-28T22:24:28.193Z,100887.41
2022-11-28T22:27:31.572Z,100886.78
2022-11-28T22:30:34.490Z,100890.59
2022-11-28T22:33:38.073Z,100884.25
2022-11-28T22:36:41.000Z,100881.06
2022-11-28T22:39:44.175Z,100881.25
2022-11-28T22:42:47.138Z,100873.09
2022-11-28T22:46:08.846Z,100870.66
2022-11-28T22:49:12.082Z,100872.38
2022-11-28T22:52:15.443Z,100872.03
2022-11-28T22:55:18.558Z,100869.16
2022-11-28T22:58:21.183Z,100868.53
2022-11-28T23:01:26.900Z,100873.03
2022-11-28T23:04:29.575Z,100867.84
2022-11-28T23:07:32.741Z,100867.84
2022-11-28T23:10:38.332Z,100871.13
2022-11-28T23:13:44.147Z,100867.78
2022-11-28T23:16:46.894Z,100869.88
2022-11-28T23:19:50.799Z,100863.44
2022-11-28T23:22:53.347Z,100863.84
2022-11-28T23:25:56.235Z,100864.69
2022-11-28T23:29:00.994Z,100864.69
2022-11-28T23:32:04.321Z,100862.91
2022-11-28T23:35:07.116Z,100850.50
2022-11-28T23:38:10.066Z,100850.31
2022-11-28T23:41:13.675Z,100856.00
2022-11-28T23:44:17.849Z,100856.50
2022-11-28T23:47:20.402Z,100851.03
2022-11-28T23:50:23.384Z,100848.88
2022-11-28T23:53:26.075Z,100840.97
2022-11-28T23:56:31.590Z,100853.84
2022-11-28T23:59:34.114Z,100841.31
